createdAt,value
2022-11-15T00:01:20.582Z,60.83
2022-11-15T00:06:42.376Z,62.78
2022-11-15T00:12:05.756Z,55.75
2022-11-15T00:17:27.736Z,55.00
2022-11-15T00:22:49.559Z,55.80
2022-11-15T00:28:12.639Z,59.78
2022-11-15T00:33:34.956Z,50.85
2022-11-15T00:38:57.198Z,55.63
2022-11-15T00:44:20.334Z,58.10
2022-11-15T00:49:42.860Z,52.22
2022-11-15T00:55:05.290Z,57.33
2022-11-15T01:00:28.566Z,52.53
2022-11-15T01:05:50.543Z,52.10
2022-11-15T01:11:14.046Z,49.15
2022-11-15T01:16:37.449Z,50.08
2022-11-15T01:21:59.138Z,43.85
2022-11-15T01:27:20.946Z,49.15
2022-11-15T01:32:44.163Z,41.33
2022-11-15T01:38:05.926Z,41.85
2022-11-15T01:43:29.794Z,46.28
2022-11-15T01:48:55.279Z,38.78
2022-11-15T01:54:21.469Z,40.38
2022-11-15T01:59:46.757Z,45.15
2022-11-15T02:05:10.788Z,44.25
2022-11-15T02:10:32.931Z,38.70
2022-11-15T02:16:12.355Z,42.60
2022-11-15T02:21:42.379Z,38.80
2022-11-15T02:27:29.548Z,41.13
2022-11-15T02:32:56.801Z,39.38
2022-11-15T02:38:24.742Z,37.97
2022-11-15T02:43:59.907Z,41.37
2022-11-15T02:49:25.238Z,36.38
2022-11-15T02:54:56.275Z,36.83
2022-11-15T03:00:20.401Z,34.38
2022-11-15T03:05:54.325Z,33.80
2022-11-15T03:11:19.392Z,35.10
2022-11-15T03:16:47.346Z,38.42
2022-11-15T03:22:13.714Z,34.33
2022-11-15T03:27:40.431Z,35.10
2022-11-15T03:33:06.027Z,36.90
2022-11-15T03:38:33.027Z,36.70
2022-11-15T03:44:01.624Z,38.33
2022-11-15T03:49:29.517Z,36.88
2022-11-15T03:54:58.392Z,37.47
2022-11-15T04:00:20.527Z,40.00
2022-11-15T04:05:42.460Z,40.40
2022-11-15T04:11:05.555Z,50.42
2022-11-15T04:16:27.271Z,38.97
2022-11-15T04:22:06.350Z,39.33
2022-11-15T04:27:29.703Z,39.00
2022-11-15T04:32:51.586Z,41.37
2022-11-15T04:38:13.756Z,42.17
2022-11-15T04:43:37.230Z,41.10
2022-11-15T04:48:59.572Z,39.83
2022-11-15T04:54:21.176Z,38.20
2022-11-15T04:59:44.327Z,42.38
2022-11-15T05:05:06.845Z,42.78
2022-11-15T05:10:28.755Z,41.65
2022-11-15T05:15:51.844Z,41.45
2022-11-15T05:21:16.234Z,45.78
2022-11-15T05:26:38.234Z,41.22
2022-11-15T05:32:01.802Z,42.05
2022-11-15T05:37:23.413Z,41.70
2022-11-15T05:42:46.185Z,40.28
2022-11-15T05:48:11.763Z,41.58
2022-11-15T05:53:34.415Z,40.72
2022-11-15T05:58:59.708Z,35.50
2022-11-15T06:04:23.044Z,37.13
2022-11-15T06:09:45.050Z,36.63
2022-11-15T06:15:07.497Z,31.50
2022-11-15T06:20:31.990Z,33.60
2022-11-15T06:25:54.270Z,29.60
2022-11-15T06:31:16.025Z,36.90
2022-11-15T06:36:39.482Z,31.25
2022-11-15T06:42:01.581Z,38.80
2022-11-15T06:47:23.167Z,26.67
2022-11-15T06:52:48.863Z,21.10
2022-11-15T06:58:10.506Z,29.63
2022-11-15T07:03:32.682Z,27.83
2022-11-15T07:08:56.551Z,22.65
2022-11-15T07:14:18.557Z,21.17
2022-11-15T07:19:40.331Z,25.88
2022-11-15T07:25:03.627Z,21.33
2022-11-15T07:30:26.977Z,29.65
2022-11-15T07:35:50.365Z,25.98
2022-11-15T07:41:13.620Z,32.08
2022-11-15T07:46:35.367Z,32.70
2022-11-15T07:51:57.092Z,37.67
2022-11-15T07:57:20.106Z,33.15
2022-11-15T08:02:42.426Z,26.77
2022-11-15T08:08:05.188Z,29.40
2022-11-15T08:13:29.025Z,21.45
2022-11-15T08:18:51.319Z,29.92
2022-11-15T08:24:12.987Z,20.58
2022-11-15T08:29:36.953Z,23.55
2022-11-15T08:34:59.054Z,22.00
2022-11-15T08:40:21.161Z,19.58
2022-11-15T08:45:44.579Z,18.80
2022-11-15T08:51:06.628Z,14.60
2022-11-15T08:56:28.538Z,17.17
2022-11-15T09:01:51.783Z,22.80
2022-11-15T09:07:15.416Z,14.43
2022-11-15T09:12:37.446Z,13.13
2022-11-15T09:18:01.471Z,11.48
2022-11-15T09:23:23.018Z,9.52
2022-11-15T09:28:44.684Z,17.25
2022-11-15T09:34:07.783Z,7.93
2022-11-15T09:39:29.491Z,8.70
2022-11-15T09:45:09.272Z,7.75
2022-11-15T09:50:38.472Z,7.68
2022-11-15T09:55:52.683Z,11.75
2022-11-15T10:01:00.202Z,4.95
2022-11-15T10:06:08.519Z,6.73
2022-11-15T10:17:04.438Z,6.20
2022-11-15T10:22:23.236Z,7.30
2022-11-15T10:27:27.106Z,5.28
2022-11-15T10:32:31.938Z,4.53
2022-11-15T10:37:37.028Z,7.05
2022-11-15T10:42:40.793Z,6.97
2022-11-15T10:47:44.548Z,8.80
2022-11-15T10:52:49.768Z,5.53
2022-11-15T10:57:56.344Z,5.43
2022-11-15T11:03:04.750Z,7.80
2022-11-15T11:13:28.167Z,6.00
2022-11-15T11:18:37.259Z,8.10
2022-11-15T11:23:50.496Z,13.62
2022-11-15T11:29:03.687Z,5.57
2022-11-15T11:34:17.578Z,4.97
2022-11-15T11:39:33.860Z,7.25
2022-11-15T11:44:51.540Z,4.87
2022-11-15T11:50:01.371Z,4.60
2022-11-15T11:55:16.851Z,4.60
2022-11-15T12:00:22.905Z,5.70
2022-11-15T12:05:33.276Z,8.73
2022-11-15T12:10:41.359Z,4.28
2022-11-15T12:15:49.433Z,3.95
2022-11-15T12:20:58.500Z,10.07
2022-11-15T12:26:10.416Z,6.55
2022-11-15T12:31:18.977Z,8.02
2022-11-15T12:36:38.521Z,9.40
2022-11-15T12:41:45.934Z,3.85
2022-11-15T12:47:24.484Z,2.10
2022-11-15T12:52:28.199Z,4.45
2022-11-15T12:57:45.588Z,9.43
2022-11-15T13:02:49.580Z,5.27
2022-11-15T13:08:00.448Z,3.25
2022-11-15T13:13:08.571Z,3.92
2022-11-15T13:18:31.092Z,5.97
2022-11-15T13:23:34.986Z,5.87
2022-11-15T13:28:45.124Z,3.55
2022-11-15T13:33:48.955Z,6.70
2022-11-15T13:39:00.866Z,3.50
2022-11-15T13:44:20.543Z,5.05
2022-11-15T13:49:31.709Z,3.08
2022-11-15T13:54:38.872Z,5.15
2022-11-15T13:59:50.955Z,4.50
2022-11-15T14:04:57.569Z,5.30
2022-11-15T14:10:19.760Z,4.30
2022-11-15T14:15:31.959Z,8.77
2022-11-15T14:20:39.093Z,6.62
2022-11-15T14:25:54.856Z,10.95
2022-11-15T14:31:01.501Z,4.18
2022-11-15T14:36:07.730Z,4.25
2022-11-15T14:41:20.652Z,3.97
2022-11-15T14:46:25.779Z,7.35
2022-11-15T14:51:29.535Z,7.53
2022-11-15T14:56:33.276Z,6.70
2022-11-15T15:01:38.290Z,4.15
2022-11-15T15:06:42.171Z,4.95
2022-11-15T15:11:46.765Z,5.68
2022-11-15T15:16:51.848Z,5.82
2022-11-15T15:21:55.493Z,2.12
2022-11-15T15:26:59.272Z,7.43
2022-11-15T15:32:04.945Z,4.35
2022-11-15T15:37:10.407Z,6.12
2022-11-15T15:42:14.158Z,8.48
2022-11-15T15:47:21.828Z,5.75
2022-11-15T15:52:26.077Z,4.27
2022-11-15T15:57:29.855Z,7.50
2022-11-15T16:02:39.264Z,5.65
2022-11-15T16:07:45.103Z,10.00
2022-11-15T16:12:49.130Z,9.35
2022-11-15T16:17:55.643Z,8.20
2022-11-15T16:23:02.090Z,8.30
2022-11-15T16:28:18.718Z,7.03
2022-11-15T16:33:23.929Z,11.30
2022-11-15T16:38:28.001Z,5.80
2022-11-15T16:43:31.682Z,6.65
2022-11-15T16:48:37.253Z,7.10
2022-11-15T16:53:41.256Z,11.27
2022-11-15T16:58:45.056Z,8.00
2022-11-15T17:03:50.080Z,8.57
2022-11-15T17:08:53.800Z,4.60
2022-11-15T17:13:59.271Z,9.02
2022-11-15T17:19:04.398Z,5.80
2022-11-15T17:24:08.410Z,9.55
2022-11-15T17:29:12.276Z,6.65
2022-11-15T17:34:17.326Z,8.30
2022-11-15T17:39:21.122Z,6.35
2022-11-15T17:44:24.789Z,8.23
2022-11-15T17:49:29.876Z,11.05
2022-11-15T17:54:33.586Z,6.65
2022-11-15T17:59:37.294Z,6.90
2022-11-15T18:04:42.243Z,6.18
2022-11-15T18:09:45.997Z,9.13
2022-11-15T18:14:49.682Z,8.73
2022-11-15T18:19:54.842Z,7.30
2022-11-15T18:24:58.685Z,9.80
2022-11-15T18:30:02.540Z,10.90
2022-11-15T18:35:09.273Z,9.93
2022-11-15T18:40:13.167Z,10.05
2022-11-15T18:45:21.527Z,10.80
2022-11-15T18:50:28.963Z,7.30
2022-11-15T18:55:32.743Z,11.00
2022-11-15T19:00:36.547Z,14.50
2022-11-15T19:05:41.655Z,19.17
2022-11-15T19:10:45.371Z,13.13
2022-11-15T19:15:49.148Z,15.48
2022-11-15T19:20:55.180Z,10.55
2022-11-15T19:26:00.125Z,21.58
2022-11-15T19:31:07.326Z,10.00
2022-11-15T19:36:14.750Z,19.85
2022-11-15T19:41:20.545Z,16.23
2022-11-15T19:46:25.007Z,11.20
2022-11-15T19:51:31.309Z,13.35
2022-11-15T19:56:36.161Z,12.73
2022-11-15T20:01:40.200Z,12.85
2022-11-15T20:06:45.465Z,15.65
2022-11-15T20:11:49.143Z,14.98
2022-11-15T20:16:54.594Z,13.82
2022-11-15T20:21:59.812Z,14.70
2022-11-15T20:27:03.587Z,15.18
2022-11-15T20:32:07.341Z,13.55
2022-11-15T20:37:12.426Z,15.82
2022-11-15T20:42:16.162Z,12.82
2022-11-15T20:47:19.865Z,14.52
2022-11-15T20:52:25.035Z,19.62
2022-11-15T20:57:28.799Z,13.40
2022-11-15T21:02:33.143Z,16.08
2022-11-15T21:07:38.235Z,16.75
2022-11-15T21:12:41.955Z,21.20
2022-11-15T21:17:45.715Z,16.55
2022-11-15T21:22:50.876Z,21.73
2022-11-15T21:27:54.700Z,15.63
2022-11-15T21:32:58.543Z,14.63
2022-11-15T21:38:03.607Z,15.07
2022-11-15T21:43:07.305Z,15.93
2022-11-15T21:48:11.020Z,13.90
2022-11-15T21:53:16.091Z,14.00
2022-11-15T21:58:20.278Z,19.95
2022-11-15T22:03:24.006Z,26.85
2022-11-15T22:08:29.413Z,17.40
2022-11-15T22:13:33.159Z,15.32
2022-11-15T22:18:37.672Z,17.67
2022-11-15T22:23:43.967Z,16.27
2022-11-15T22:28:48.071Z,17.50
2022-11-15T22:33:51.813Z,16.25
2022-11-15T22:38:56.877Z,14.32
2022-11-15T22:44:00.569Z,16.25
2022-11-15T22:49:04.334Z,21.30
2022-11-15T22:54:09.511Z,15.80
2022-11-15T22:59:13.267Z,18.35
2022-11-15T23:04:17.122Z,24.25
2022-11-15T23:09:22.202Z,16.60
2022-11-15T23:14:26.313Z,17.70
2022-11-15T23:19:30.044Z,14.30
2022-11-15T23:24:35.237Z,14.52
2022-11-15T23:29:52.912Z,15.65
2022-11-15T23:34:56.629Z,18.37
2022-11-15T23:40:01.771Z,17.40
2022-11-15T23:45:06.375Z,17.35
2022-11-15T23:50:10.471Z,21.60
2022-11-15T23:55:15.542Z,20.25
